createdAt,value
2017-10-14T00:02:16.136Z,57.47
2017-10-14T00:04:44.735Z,55.25
2017-10-14T00:07:12.321Z,51.27
2017-10-14T00:09:40.672Z,55.80
2017-10-14T00:12:08.242Z,56.57
2017-10-14T00:14:35.837Z,171.73
2017-10-14T00:17:03.460Z,331.70
2017-10-14T00:19:31.092Z,151.10
2017-10-14T00:21:58.668Z,251.07
2017-10-14T00:24:26.276Z,74.43
2017-10-14T00:26:54.089Z,56.67
2017-10-14T00:29:21.684Z,61.30
2017-10-14T00:31:50.020Z,58.65
2017-10-14T00:34:17.811Z,53.87
2017-10-14T00:36:46.589Z,50.95
2017-10-14T00:39:14.161Z,64.13
2017-10-14T00:41:41.752Z,54.27
2017-10-14T00:44:09.328Z,51.33
2017-10-14T00:46:36.916Z,52.80
2017-10-14T00:49:04.480Z,58.50
2017-10-14T00:51:32.077Z,57.23
2017-10-14T00:54:00.733Z,54.87
2017-10-14T00:56:28.309Z,57.67
2017-10-14T00:58:56.085Z,58.73
2017-10-14T01:01:23.661Z,54.53
2017-10-14T01:03:52.000Z,56.42
2017-10-14T01:06:19.592Z,53.17
2017-10-14T01:08:47.952Z,60.77
2017-10-14T01:11:15.536Z,55.60
2017-10-14T01:13:44.852Z,65.28
2017-10-14T01:16:12.418Z,59.23
2017-10-14T01:18:40.311Z,59.07
2017-10-14T01:21:07.920Z,69.00
2017-10-14T01:23:36.302Z,57.83
2017-10-14T01:26:04.690Z,61.15
2017-10-14T01:28:33.064Z,59.97
2017-10-14T01:31:01.416Z,58.40
2017-10-14T01:33:29.087Z,67.57
2017-10-14T01:35:56.652Z,61.08
2017-10-14T01:38:24.228Z,71.83
2017-10-14T01:40:52.596Z,63.33
2017-10-14T01:43:20.164Z,61.63
2017-10-14T01:45:48.637Z,64.33
2017-10-14T01:48:16.295Z,49.00
2017-10-14T01:50:44.864Z,58.27
2017-10-14T01:53:12.432Z,52.53
2017-10-14T01:55:40.097Z,51.10
2017-10-14T01:58:09.168Z,46.10
2017-10-14T02:00:36.776Z,46.50
2017-10-14T02:03:05.113Z,51.00
2017-10-14T02:05:32.856Z,51.80
2017-10-14T02:08:00.433Z,61.17
2017-10-14T02:10:28.019Z,56.50
2017-10-14T02:12:55.612Z,53.60
2017-10-14T02:15:23.993Z,53.57
2017-10-14T02:17:52.353Z,51.63
2017-10-14T02:20:19.928Z,52.10
2017-10-14T02:22:48.289Z,57.93
2017-10-14T02:25:15.907Z,48.53
2017-10-14T02:27:45.769Z,58.30
2017-10-14T02:30:13.345Z,44.13
2017-10-14T02:32:41.709Z,43.77
2017-10-14T02:35:10.048Z,59.43
2017-10-14T02:37:37.660Z,54.23
2017-10-14T02:40:06.000Z,50.33
2017-10-14T02:42:33.581Z,47.77
2017-10-14T02:45:01.185Z,46.70
2017-10-14T02:47:28.760Z,57.20
2017-10-14T02:49:56.355Z,52.45
2017-10-14T02:52:23.924Z,60.33
2017-10-14T02:54:51.517Z,46.50
2017-10-14T02:57:19.086Z,54.73
2017-10-14T02:59:46.712Z,77.13
2017-10-14T03:02:14.275Z,71.43
2017-10-14T03:04:41.884Z,59.47
2017-10-14T03:07:09.460Z,75.17
2017-10-14T03:09:37.053Z,62.67
2017-10-14T03:12:04.715Z,53.83
2017-10-14T03:14:32.325Z,58.60
2017-10-14T03:16:59.900Z,59.42
2017-10-14T03:19:27.467Z,57.40
2017-10-14T03:21:55.056Z,67.63
2017-10-14T03:24:22.821Z,65.70
2017-10-14T03:26:50.489Z,59.77
2017-10-14T03:29:18.060Z,58.40
2017-10-14T03:31:46.016Z,59.33
2017-10-14T03:34:13.593Z,50.50
2017-10-14T03:36:42.876Z,50.63
2017-10-14T03:39:11.207Z,53.13
2017-10-14T03:41:39.123Z,60.30
2017-10-14T03:44:06.780Z,60.00
2017-10-14T03:46:34.353Z,53.23
2017-10-14T03:49:01.949Z,50.92
2017-10-14T03:51:29.572Z,48.67
2017-10-14T03:53:58.672Z,56.00
2017-10-14T03:56:26.248Z,51.33
2017-10-14T03:58:54.708Z,56.17
2017-10-14T04:01:22.287Z,59.33
2017-10-14T04:03:50.627Z,46.77
2017-10-14T04:06:18.220Z,52.07
2017-10-14T04:08:46.897Z,63.87
2017-10-14T04:11:14.470Z,63.70
2017-10-14T04:13:43.756Z,60.63
2017-10-14T04:16:11.320Z,64.00
2017-10-14T04:18:38.912Z,57.50
2017-10-14T04:21:06.544Z,61.33
2017-10-14T04:23:34.144Z,59.97
2017-10-14T04:26:01.723Z,61.42
2017-10-14T04:28:29.428Z,66.10
2017-10-14T04:30:57.050Z,54.03
2017-10-14T04:33:24.632Z,57.70
2017-10-14T04:35:52.240Z,68.62
2017-10-14T04:38:19.837Z,61.17
2017-10-14T04:40:47.412Z,60.43
2017-10-14T04:43:15.009Z,60.07
2017-10-14T04:45:43.784Z,69.37
2017-10-14T04:48:11.385Z,66.47
2017-10-14T04:50:39.007Z,57.07
2017-10-14T04:53:06.608Z,64.70
2017-10-14T04:55:34.180Z,65.50
2017-10-14T04:58:01.776Z,67.22
2017-10-14T05:00:29.357Z,67.63
2017-10-14T05:02:57.716Z,71.53
2017-10-14T05:05:25.283Z,51.30
2017-10-14T05:07:52.903Z,113.60
2017-10-14T05:10:20.476Z,212.80
2017-10-14T05:12:48.077Z,182.98
2017-10-14T05:15:15.672Z,71.37
2017-10-14T05:17:44.833Z,69.45
2017-10-14T05:20:12.463Z,78.43
2017-10-14T05:22:40.061Z,62.10
2017-10-14T05:25:08.414Z,67.07
2017-10-14T05:27:36.033Z,73.73
2017-10-14T05:30:03.604Z,70.90
2017-10-14T05:32:31.216Z,71.23
2017-10-14T05:34:58.792Z,68.43
2017-10-14T05:37:27.156Z,69.23
2017-10-14T05:39:54.825Z,66.30
2017-10-14T05:42:22.423Z,75.60
2017-10-14T05:44:49.992Z,101.15
2017-10-14T05:47:17.588Z,140.17
2017-10-14T05:49:45.729Z,196.20
2017-10-14T05:52:13.339Z,318.73
2017-10-14T05:54:43.344Z,376.67
2017-10-14T05:57:10.943Z,409.90
2017-10-14T05:59:39.280Z,438.87
2017-10-14T06:02:06.960Z,387.40
2017-10-14T06:04:34.528Z,368.73
2017-10-14T06:07:02.904Z,344.43
2017-10-14T06:09:30.483Z,312.97
2017-10-14T06:11:58.847Z,70.50
2017-10-14T06:14:26.436Z,98.47
2017-10-14T06:16:54.013Z,76.10
2017-10-14T06:19:21.612Z,63.00
2017-10-14T06:21:49.185Z,76.22
2017-10-14T06:24:16.789Z,174.90
2017-10-14T06:26:46.760Z,271.08
2017-10-14T06:29:14.365Z,348.50
2017-10-14T06:31:41.937Z,200.43
2017-10-14T06:34:09.536Z,228.77
2017-10-14T06:36:38.621Z,219.73
2017-10-14T06:39:06.213Z,71.93
2017-10-14T06:41:34.584Z,44.00
2017-10-14T06:44:03.709Z,45.40
2017-10-14T06:46:31.344Z,45.43
2017-10-14T06:48:58.917Z,33.20
2017-10-14T06:51:27.297Z,34.83
2017-10-14T06:53:55.664Z,32.38
2017-10-14T06:56:23.472Z,30.50
2017-10-14T06:58:51.036Z,29.20
2017-10-14T07:01:18.623Z,32.47
2017-10-14T07:03:46.192Z,31.30
2017-10-14T07:06:13.792Z,32.00
2017-10-14T07:08:43.048Z,41.30
2017-10-14T07:11:10.678Z,33.87
2017-10-14T07:13:38.248Z,27.33
2017-10-14T07:16:05.840Z,32.43
2017-10-14T07:18:33.517Z,30.10
2017-10-14T07:21:01.116Z,30.13
2017-10-14T07:23:28.683Z,28.20
2017-10-14T07:25:56.505Z,27.60
2017-10-14T07:28:24.226Z,27.63
2017-10-14T07:30:51.797Z,25.55
2017-10-14T07:33:19.497Z,24.40
2017-10-14T07:35:47.845Z,27.27
2017-10-14T07:38:15.449Z,24.87
2017-10-14T07:40:43.888Z,26.63
2017-10-14T07:43:11.480Z,25.97
2017-10-14T07:45:39.050Z,26.90
2017-10-14T07:48:07.533Z,31.53
2017-10-14T07:50:35.900Z,20.17
2017-10-14T07:53:03.473Z,21.57
2017-10-14T07:55:31.835Z,23.17
2017-10-14T07:57:59.408Z,22.62
2017-10-14T08:00:27.875Z,21.13
2017-10-14T08:02:55.448Z,20.95
2017-10-14T08:05:23.825Z,18.60
2017-10-14T08:07:52.207Z,24.00
2017-10-14T08:10:20.575Z,25.93
2017-10-14T08:12:48.148Z,25.13
2017-10-14T08:15:16.503Z,15.20
2017-10-14T08:17:46.697Z,18.67
2017-10-14T08:20:14.296Z,20.40
2017-10-14T08:22:42.021Z,15.30
2017-10-14T08:25:09.728Z,19.30
2017-10-14T08:27:37.388Z,17.60
2017-10-14T08:30:05.002Z,18.03
2017-10-14T08:32:32.604Z,23.87
2017-10-14T08:35:00.172Z,27.00
2017-10-14T08:37:27.764Z,25.53
2017-10-14T08:39:55.335Z,26.37
2017-10-14T08:42:22.956Z,21.70
2017-10-14T08:44:50.564Z,24.80
2017-10-14T08:47:18.177Z,21.80
2017-10-14T08:49:46.060Z,26.10
2017-10-14T08:52:14.424Z,22.13
2017-10-14T08:54:42.000Z,33.10
2017-10-14T08:57:10.362Z,25.40
2017-10-14T08:59:37.968Z,26.40
2017-10-14T09:02:05.536Z,20.70
2017-10-14T09:04:33.132Z,20.90
2017-10-14T09:07:00.705Z,20.80
2017-10-14T09:09:29.904Z,17.50
2017-10-14T09:11:59.100Z,17.17
2017-10-14T09:14:26.691Z,21.60
2017-10-14T09:16:55.024Z,21.05
2017-10-14T09:19:22.616Z,15.27
2017-10-14T09:21:50.960Z,13.25
2017-10-14T09:24:18.552Z,15.80
2017-10-14T09:26:46.884Z,15.90
2017-10-14T09:29:14.585Z,13.53
2017-10-14T09:31:42.159Z,18.07
2017-10-14T09:34:10.488Z,19.13
2017-10-14T09:36:38.080Z,12.87
2017-10-14T09:39:06.440Z,12.20
2017-10-14T09:41:34.044Z,15.90
2017-10-14T09:44:02.916Z,15.05
2017-10-14T09:46:30.484Z,11.53
2017-10-14T09:48:58.053Z,11.52
2017-10-14T09:51:26.430Z,14.57
2017-10-14T09:53:54.763Z,20.67
2017-10-14T09:56:22.357Z,13.33
2017-10-14T09:58:49.928Z,12.60
2017-10-14T10:01:17.584Z,14.50
2017-10-14T10:03:47.576Z,13.10
2017-10-14T10:06:15.164Z,11.30
2017-10-14T10:08:42.733Z,17.87
2017-10-14T10:11:11.302Z,9.87
2017-10-14T10:13:38.869Z,9.80
2017-10-14T10:16:06.528Z,7.75
2017-10-14T10:18:34.115Z,6.40
2017-10-14T10:21:02.444Z,7.53
2017-10-14T10:23:30.028Z,7.30
2017-10-14T10:25:57.614Z,13.68
2017-10-14T10:28:26.357Z,8.43
2017-10-14T10:30:53.936Z,6.30
2017-10-14T10:33:21.598Z,8.57
2017-10-14T10:35:49.265Z,8.40
2017-10-14T10:38:16.839Z,5.73
2017-10-14T10:40:46.219Z,5.30
2017-10-14T10:43:13.788Z,3.70
2017-10-14T10:45:41.371Z,4.53
2017-10-14T10:48:09.737Z,4.13
2017-10-14T10:50:38.097Z,4.40
2017-10-14T10:53:05.953Z,6.10
2017-10-14T10:55:33.541Z,5.40
2017-10-14T10:58:01.887Z,10.77
2017-10-14T11:00:29.576Z,5.20
2017-10-14T11:02:58.680Z,5.80
2017-10-14T11:05:26.244Z,5.20
2017-10-14T11:07:54.601Z,5.93
2017-10-14T11:10:22.372Z,5.83
2017-10-14T11:12:49.931Z,3.53
2017-10-14T11:15:17.491Z,7.07
2017-10-14T11:17:46.000Z,4.47
2017-10-14T11:20:14.361Z,4.53
2017-10-14T11:22:42.021Z,3.57
2017-10-14T11:25:09.613Z,6.57
2017-10-14T11:27:37.960Z,4.43
2017-10-14T11:30:05.625Z,4.62
2017-10-14T11:32:34.696Z,5.40
2017-10-14T11:35:02.484Z,7.97
2017-10-14T11:37:30.148Z,4.40
2017-10-14T11:39:57.720Z,4.70
2017-10-14T11:42:26.073Z,6.50
2017-10-14T11:44:53.641Z,4.77
2017-10-14T11:47:21.229Z,6.17
2017-10-14T11:49:49.575Z,5.33
2017-10-14T11:52:17.252Z,3.53
2017-10-14T11:54:44.816Z,4.17
2017-10-14T11:57:12.472Z,6.17
2017-10-14T11:59:40.032Z,5.43
2017-10-14T12:02:07.600Z,7.20
2017-10-14T12:04:35.184Z,5.03
2017-10-14T12:07:02.753Z,2.83
2017-10-14T12:09:30.339Z,3.60
2017-10-14T12:11:57.901Z,5.50
2017-10-14T12:14:25.484Z,4.87
2017-10-14T12:16:53.040Z,3.27
2017-10-14T12:19:20.924Z,2.83
2017-10-14T12:21:49.331Z,4.80
2017-10-14T12:24:17.689Z,3.00
2017-10-14T12:26:46.196Z,7.33
2017-10-14T12:29:14.521Z,2.83
2017-10-14T12:31:42.512Z,4.20
2017-10-14T12:34:10.077Z,3.80
2017-10-14T12:36:37.740Z,2.70
2017-10-14T12:39:05.339Z,3.08
2017-10-14T12:41:32.960Z,2.50
2017-10-14T12:44:02.064Z,2.85
2017-10-14T12:46:29.632Z,6.30
2017-10-14T12:48:58.004Z,4.10
2017-10-14T12:51:26.372Z,3.70
2017-10-14T12:53:53.945Z,3.37
2017-10-14T12:56:21.597Z,4.30
2017-10-14T12:58:49.259Z,2.67
2017-10-14T13:01:16.821Z,2.27
2017-10-14T13:03:44.484Z,3.67
2017-10-14T13:06:12.053Z,2.77
2017-10-14T13:08:40.712Z,2.23
2017-10-14T13:11:08.276Z,3.57
2017-10-14T13:13:35.980Z,3.87
2017-10-14T13:16:04.313Z,2.25
2017-10-14T13:18:31.880Z,2.33
2017-10-14T13:20:59.472Z,2.30
2017-10-14T13:23:27.798Z,2.87
2017-10-14T13:25:55.561Z,2.30
2017-10-14T13:28:23.133Z,2.30
2017-10-14T13:30:50.700Z,3.00
2017-10-14T13:33:18.383Z,2.47
2017-10-14T13:35:47.788Z,3.35
2017-10-14T13:38:15.552Z,4.07
2017-10-14T13:40:43.891Z,4.27
2017-10-14T13:43:11.456Z,6.73
2017-10-14T13:45:39.052Z,2.30
2017-10-14T13:48:06.712Z,2.17
2017-10-14T13:50:34.308Z,2.13
2017-10-14T13:53:01.936Z,3.20
2017-10-14T13:55:29.580Z,3.10
2017-10-14T13:57:57.141Z,8.07
2017-10-14T14:00:24.722Z,3.50
2017-10-14T14:02:52.287Z,2.80
2017-10-14T14:05:19.872Z,3.20
2017-10-14T14:07:48.852Z,2.97
2017-10-14T14:10:17.629Z,4.20
2017-10-14T14:12:46.116Z,3.47
2017-10-14T14:15:13.767Z,4.00
2017-10-14T14:17:41.427Z,3.23
2017-10-14T14:20:10.496Z,1.90
2017-10-14T14:22:38.120Z,2.47
2017-10-14T14:25:06.454Z,6.85
2017-10-14T14:27:34.021Z,2.33
2017-10-14T14:30:02.407Z,2.87
2017-10-14T14:32:29.968Z,2.70
2017-10-14T14:34:59.164Z,5.63
2017-10-14T14:37:26.828Z,2.80
2017-10-14T14:39:54.488Z,6.33
2017-10-14T14:42:22.872Z,4.67
2017-10-14T14:44:50.480Z,3.97
2017-10-14T14:47:18.100Z,5.23
2017-10-14T14:49:47.095Z,2.30
2017-10-14T14:52:14.748Z,3.70
2017-10-14T14:54:42.412Z,5.33
2017-10-14T14:57:10.085Z,7.33
2017-10-14T14:59:37.673Z,2.33
2017-10-14T15:02:05.235Z,3.33
2017-10-14T15:04:32.960Z,3.27
2017-10-14T15:07:00.523Z,3.00
2017-10-14T15:09:28.092Z,2.77
2017-10-14T15:11:55.848Z,2.28
2017-10-14T15:14:23.412Z,4.93
2017-10-14T15:16:51.073Z,2.25
2017-10-14T15:19:18.635Z,3.93
2017-10-14T15:21:48.648Z,2.60
2017-10-14T15:24:16.209Z,3.60
2017-10-14T15:26:43.872Z,2.50
2017-10-14T15:29:11.440Z,4.13
2017-10-14T15:31:39.297Z,6.00
2017-10-14T15:34:07.509Z,3.10
2017-10-14T15:36:35.076Z,3.60
2017-10-14T15:39:02.664Z,4.50
2017-10-14T15:41:30.259Z,5.93
2017-10-14T15:43:57.840Z,3.90
2017-10-14T15:46:26.173Z,2.67
2017-10-14T15:48:53.759Z,2.47
2017-10-14T15:51:21.320Z,4.43
2017-10-14T15:53:48.996Z,5.00
2017-10-14T15:56:17.325Z,3.80
2017-10-14T15:58:45.939Z,3.28
2017-10-14T16:01:13.609Z,4.10
2017-10-14T16:03:41.196Z,3.87
2017-10-14T16:06:09.539Z,4.20
2017-10-14T16:08:37.921Z,4.80
2017-10-14T16:11:06.194Z,3.15
2017-10-14T16:13:33.865Z,5.93
2017-10-14T16:16:01.535Z,4.82
2017-10-14T16:18:29.510Z,5.00
2017-10-14T16:20:57.856Z,5.65
2017-10-14T16:23:25.420Z,5.17
2017-10-14T16:25:53.109Z,6.17
2017-10-14T16:28:21.448Z,4.80
2017-10-14T16:30:49.051Z,6.30
2017-10-14T16:33:17.388Z,6.17
2017-10-14T16:35:45.899Z,5.93
2017-10-14T16:38:13.467Z,5.40
2017-10-14T16:40:41.193Z,10.20
2017-10-14T16:43:08.765Z,5.53
2017-10-14T16:45:36.352Z,5.93
2017-10-14T16:48:05.419Z,7.60
2017-10-14T16:50:33.005Z,7.37
2017-10-14T16:53:00.577Z,8.37
2017-10-14T16:55:28.932Z,6.33
2017-10-14T16:57:56.501Z,9.30
2017-10-14T17:00:24.865Z,10.97
2017-10-14T17:02:52.458Z,8.90
2017-10-14T17:05:20.824Z,11.03
2017-10-14T17:07:48.904Z,7.97
2017-10-14T17:10:16.496Z,7.33
2017-10-14T17:12:44.063Z,9.53
2017-10-14T17:15:11.800Z,8.77
2017-10-14T17:17:40.142Z,8.20
2017-10-14T17:20:07.859Z,12.93
2017-10-14T17:22:35.452Z,9.73
2017-10-14T17:25:03.031Z,12.90
2017-10-14T17:27:30.703Z,11.03
2017-10-14T17:29:58.268Z,12.65
2017-10-14T17:32:27.423Z,14.23
2017-10-14T17:34:54.986Z,12.60
2017-10-14T17:37:22.892Z,15.20
2017-10-14T17:39:50.556Z,18.73
2017-10-14T17:42:18.119Z,14.00
2017-10-14T17:44:47.312Z,12.48
2017-10-14T17:47:14.876Z,13.63
2017-10-14T17:49:42.457Z,14.00
2017-10-14T17:52:10.824Z,13.80
2017-10-14T17:54:39.956Z,14.77
2017-10-14T17:57:07.515Z,11.43
2017-10-14T17:59:35.076Z,12.67
2017-10-14T18:02:02.697Z,9.70
2017-10-14T18:04:30.532Z,10.27
2017-10-14T18:06:58.419Z,9.30
2017-10-14T18:09:26.092Z,6.63
2017-10-14T18:11:53.764Z,10.60
2017-10-14T18:14:21.520Z,9.87
2017-10-14T18:16:49.094Z,5.80
2017-10-14T18:19:17.437Z,10.95
2017-10-14T18:21:45.956Z,12.97
2017-10-14T18:24:14.295Z,11.00
2017-10-14T18:26:42.827Z,10.43
2017-10-14T18:29:10.411Z,11.10
2017-10-14T18:31:38.041Z,11.93
2017-10-14T18:34:06.413Z,9.90
2017-10-14T18:36:33.980Z,19.40
2017-10-14T18:39:01.568Z,16.87
2017-10-14T18:41:29.131Z,23.30
2017-10-14T18:43:56.760Z,26.15
2017-10-14T18:46:25.135Z,18.83
2017-10-14T18:48:53.506Z,21.08
2017-10-14T18:51:22.594Z,17.37
2017-10-14T18:53:50.484Z,16.70
2017-10-14T18:56:18.063Z,17.80
2017-10-14T18:58:47.853Z,19.77
2017-10-14T19:01:15.458Z,24.47
2017-10-14T19:03:43.082Z,16.60
2017-10-14T19:06:10.798Z,18.27
2017-10-14T19:08:38.410Z,18.30
2017-10-14T19:11:06.785Z,18.60
2017-10-14T19:13:34.449Z,21.37
2017-10-14T19:16:02.934Z,16.08
2017-10-14T19:18:31.282Z,16.47
2017-10-14T19:20:58.973Z,18.63
2017-10-14T19:23:27.317Z,21.00
2017-10-14T19:25:54.930Z,19.17
2017-10-14T19:28:23.284Z,17.17
2017-10-14T19:30:51.883Z,19.40
2017-10-14T19:33:20.231Z,16.80
2017-10-14T19:35:48.861Z,18.07
2017-10-14T19:38:17.332Z,17.13
2017-10-14T19:40:44.982Z,23.37
2017-10-14T19:43:12.591Z,18.10
2017-10-14T19:45:40.185Z,16.70
2017-10-14T19:48:07.793Z,17.10
2017-10-14T19:50:35.369Z,14.23
2017-10-14T19:53:02.960Z,12.50
2017-10-14T19:55:30.546Z,14.87
2017-10-14T19:57:58.149Z,15.25
2017-10-14T20:00:26.625Z,14.27
2017-10-14T20:02:54.196Z,17.50
2017-10-14T20:05:21.789Z,17.83
2017-10-14T20:07:49.368Z,13.40
2017-10-14T20:10:18.465Z,17.00
2017-10-14T20:12:47.857Z,15.98
2017-10-14T20:15:15.449Z,16.73
2017-10-14T20:17:43.775Z,16.30
2017-10-14T20:20:11.474Z,15.07
2017-10-14T20:22:39.039Z,16.47
2017-10-14T20:25:06.628Z,18.23
2017-10-14T20:27:34.257Z,14.83
2017-10-14T20:30:01.869Z,15.87
2017-10-14T20:32:29.470Z,15.53
2017-10-14T20:34:57.079Z,11.83
2017-10-14T20:37:24.659Z,13.90
2017-10-14T20:39:52.262Z,10.10
2017-10-14T20:42:19.823Z,13.93
2017-10-14T20:44:48.712Z,13.20
2017-10-14T20:47:16.272Z,18.07
2017-10-14T20:49:43.864Z,16.97
2017-10-14T20:52:12.216Z,14.30
2017-10-14T20:54:39.784Z,16.50
2017-10-14T20:57:08.257Z,18.13
2017-10-14T20:59:35.837Z,18.30
2017-10-14T21:02:04.193Z,17.17
2017-10-14T21:04:31.764Z,19.60
2017-10-14T21:06:59.681Z,15.13
2017-10-14T21:09:27.260Z,16.63
2017-10-14T21:11:54.846Z,12.20
2017-10-14T21:14:22.522Z,13.27
2017-10-14T21:16:50.870Z,13.30
2017-10-14T21:19:18.479Z,14.87
2017-10-14T21:21:47.837Z,10.48
2017-10-14T21:24:15.442Z,12.80
2017-10-14T21:26:43.021Z,14.93
2017-10-14T21:29:10.621Z,10.40
2017-10-14T21:31:38.227Z,13.43
2017-10-14T21:34:05.829Z,15.77
2017-10-14T21:36:33.407Z,12.30
2017-10-14T21:39:02.531Z,9.90
2017-10-14T21:41:30.873Z,10.53
2017-10-14T21:43:58.477Z,14.93
2017-10-14T21:46:26.816Z,12.05
2017-10-14T21:48:54.496Z,11.65
2017-10-14T21:51:22.162Z,10.43
2017-10-14T21:53:49.771Z,19.40
2017-10-14T21:56:17.388Z,16.03
2017-10-14T21:58:45.896Z,12.07
2017-10-14T22:01:13.464Z,12.77
2017-10-14T22:03:41.079Z,11.77
2017-10-14T22:06:08.748Z,13.53
2017-10-14T22:08:36.321Z,10.93
2017-10-14T22:11:04.691Z,11.40
2017-10-14T22:13:33.063Z,11.20
2017-10-14T22:16:00.684Z,14.57
2017-10-14T22:18:28.248Z,15.40
2017-10-14T22:20:55.850Z,12.53
2017-10-14T22:23:23.448Z,13.80
2017-10-14T22:25:51.012Z,10.65
2017-10-14T22:28:18.633Z,13.57
2017-10-14T22:30:47.368Z,12.90
2017-10-14T22:33:14.996Z,16.50
2017-10-14T22:35:43.328Z,10.27
2017-10-14T22:38:10.897Z,12.57
2017-10-14T22:40:38.586Z,14.13
2017-10-14T22:43:06.147Z,16.80
2017-10-14T22:45:34.516Z,12.07
2017-10-14T22:48:03.588Z,16.65
2017-10-14T22:50:31.177Z,11.07
2017-10-14T22:53:00.268Z,12.10
2017-10-14T22:55:28.172Z,12.80
2017-10-14T22:57:55.753Z,11.52
2017-10-14T23:00:23.325Z,10.87
2017-10-14T23:02:50.916Z,17.02
2017-10-14T23:05:18.704Z,13.57
2017-10-14T23:07:47.681Z,11.45
2017-10-14T23:10:15.246Z,12.43
2017-10-14T23:12:42.833Z,14.97
2017-10-14T23:15:11.164Z,10.90
2017-10-14T23:17:38.844Z,18.37
2017-10-14T23:20:06.412Z,13.47
2017-10-14T23:22:34.000Z,13.87
2017-10-14T23:25:02.349Z,12.68
2017-10-14T23:27:30.111Z,16.70
2017-10-14T23:29:57.772Z,16.03
2017-10-14T23:32:25.441Z,17.60
2017-10-14T23:34:53.036Z,17.92
2017-10-14T23:37:20.664Z,20.60
2017-10-14T23:39:49.140Z,17.73
2017-10-14T23:42:16.718Z,17.73
2017-10-14T23:44:45.986Z,24.87
2017-10-14T23:47:13.772Z,19.70
2017-10-14T23:49:41.341Z,16.97
2017-10-14T23:52:09.001Z,25.27
2017-10-14T23:54:36.588Z,24.40
2017-10-14T23:57:04.161Z,25.90
2017-10-14T23:59:31.867Z,19.58
